sensor_id;sensor_type;location;lat;lon;timestamp;P1;durP1;ratioP1;P2;durP2;ratioP2
25279;SDS011;13225;47.804;12.116;2023-03-03T00:01:38;54.45;;;20.67;;
25279;SDS011;13225;47.804;12.116;2023-03-03T00:04:04;49.63;;;20.17;;
25279;SDS011;13225;47.804;12.116;2023-03-03T00:06:29;44.70;;;19.20;;
25279;SDS011;13225;47.804;12.116;2023-03-03T00:08:56;56.60;;;24.02;;
25279;SDS011;13225;47.804;12.116;2023-03-03T00:11:22;51.63;;;21.15;;
25279;SDS011;13225;47.804;12.116;2023-03-03T00:13:49;50.35;;;21.50;;
25279;SDS011;13225;47.804;12.116;2023-03-03T00:16:24;49.63;;;21.35;;
25279;SDS011;13225;47.804;12.116;2023-03-03T00:18:50;51.00;;;20.17;;
25279;SDS011;13225;47.804;12.116;2023-03-03T00:21:30;51.45;;;21.23;;
25279;SDS011;13225;47.804;12.116;2023-03-03T00:24:41;52.58;;;21.17;;
25279;SDS011;13225;47.804;12.116;2023-03-03T00:26:49;54.47;;;21.25;;
25279;SDS011;13225;47.804;12.116;2023-03-03T00:31:48;48.55;;;20.38;;
25279;SDS011;13225;47.804;12.116;2023-03-03T00:36:43;52.85;;;21.33;;
25279;SDS011;13225;47.804;12.116;2023-03-03T00:39:10;50.67;;;21.80;;
25279;SDS011;13225;47.804;12.116;2023-03-03T00:41:51;49.97;;;19.25;;
25279;SDS011;13225;47.804;12.116;2023-03-03T00:46:49;54.97;;;21.25;;
25279;SDS011;13225;47.804;12.116;2023-03-03T00:49:19;49.45;;;19.60;;
25279;SDS011;13225;47.804;12.116;2023-03-03T00:51:50;54.00;;;21.58;;
25279;SDS011;13225;47.804;12.116;2023-03-03T00:54:17;46.67;;;19.52;;
25279;SDS011;13225;47.804;12.116;2023-03-03T00:56:42;51.78;;;20.50;;
25279;SDS011;13225;47.804;12.116;2023-03-03T00:59:08;57.20;;;23.27;;
25279;SDS011;13225;47.804;12.116;2023-03-03T01:01:34;52.47;;;20.35;;
25279;SDS011;13225;47.804;12.116;2023-03-03T01:03:59;47.88;;;20.58;;
25279;SDS011;13225;47.804;12.116;2023-03-03T01:06:25;50.63;;;20.73;;
25279;SDS011;13225;47.804;12.116;2023-03-03T01:08:50;58.67;;;22.65;;
25279;SDS011;13225;47.804;12.116;2023-03-03T01:11:19;54.78;;;22.48;;
25279;SDS011;13225;47.804;12.116;2023-03-03T01:13:47;52.35;;;23.38;;
25279;SDS011;13225;47.804;12.116;2023-03-03T01:16:14;55.92;;;22.10;;
25279;SDS011;13225;47.804;12.116;2023-03-03T01:18:40;51.17;;;21.05;;
25279;SDS011;13225;47.804;12.116;2023-03-03T01:21:06;53.45;;;21.85;;
25279;SDS011;13225;47.804;12.116;2023-03-03T01:23:33;54.15;;;22.17;;
25279;SDS011;13225;47.804;12.116;2023-03-03T01:25:59;53.67;;;21.00;;
25279;SDS011;13225;47.804;12.116;2023-03-03T01:28:24;49.28;;;20.88;;
25279;SDS011;13225;47.804;12.116;2023-03-03T01:30:50;55.20;;;23.42;;
25279;SDS011;13225;47.804;12.116;2023-03-03T01:33:16;56.20;;;22.60;;
25279;SDS011;13225;47.804;12.116;2023-03-03T01:35:43;56.53;;;23.27;;
25279;SDS011;13225;47.804;12.116;2023-03-03T01:38:09;53.08;;;23.23;;
25279;SDS011;13225;47.804;12.116;2023-03-03T01:40:35;53.50;;;22.20;;
25279;SDS011;13225;47.804;12.116;2023-03-03T01:43:01;53.75;;;23.17;;
25279;SDS011;13225;47.804;12.116;2023-03-03T01:45:30;48.45;;;22.25;;
25279;SDS011;13225;47.804;12.116;2023-03-03T01:48:09;55.38;;;23.45;;
25279;SDS011;13225;47.804;12.116;2023-03-03T01:50:59;54.60;;;23.92;;
25279;SDS011;13225;47.804;12.116;2023-03-03T01:53:37;57.20;;;24.25;;
25279;SDS011;13225;47.804;12.116;2023-03-03T01:56:07;49.65;;;23.25;;
25279;SDS011;13225;47.804;12.116;2023-03-03T01:58:34;50.58;;;22.17;;
25279;SDS011;13225;47.804;12.116;2023-03-03T02:01:03;53.20;;;22.38;;
25279;SDS011;13225;47.804;12.116;2023-03-03T02:03:33;52.95;;;22.23;;
25279;SDS011;13225;47.804;12.116;2023-03-03T02:06:00;55.10;;;22.35;;
25279;SDS011;13225;47.804;12.116;2023-03-03T02:08:32;51.47;;;23.80;;
25279;SDS011;13225;47.804;12.116;2023-03-03T02:11:15;51.00;;;21.48;;
25279;SDS011;13225;47.804;12.116;2023-03-03T02:13:41;51.80;;;21.88;;
25279;SDS011;13225;47.804;12.116;2023-03-03T02:16:06;58.92;;;22.52;;
25279;SDS011;13225;47.804;12.116;2023-03-03T02:18:32;59.60;;;26.27;;
25279;SDS011;13225;47.804;12.116;2023-03-03T02:26:24;59.13;;;23.52;;
25279;SDS011;13225;47.804;12.116;2023-03-03T02:28:51;53.65;;;23.48;;
25279;SDS011;13225;47.804;12.116;2023-03-03T02:31:18;54.95;;;21.83;;
25279;SDS011;13225;47.804;12.116;2023-03-03T02:33:46;57.53;;;23.65;;
25279;SDS011;13225;47.804;12.116;2023-03-03T02:36:30;50.08;;;21.95;;
25279;SDS011;13225;47.804;12.116;2023-03-03T02:39:10;55.67;;;23.55;;
25279;SDS011;13225;47.804;12.116;2023-03-03T02:41:50;51.85;;;21.90;;
25279;SDS011;13225;47.804;12.116;2023-03-03T02:44:27;54.20;;;22.33;;
25279;SDS011;13225;47.804;12.116;2023-03-03T02:46:55;52.67;;;23.02;;
25279;SDS011;13225;47.804;12.116;2023-03-03T02:49:25;57.35;;;22.50;;
25279;SDS011;13225;47.804;12.116;2023-03-03T02:51:56;63.45;;;24.27;;
25279;SDS011;13225;47.804;12.116;2023-03-03T02:54:23;56.70;;;22.77;;
25279;SDS011;13225;47.804;12.116;2023-03-03T02:56:50;57.15;;;22.77;;
25279;SDS011;13225;47.804;12.116;2023-03-03T02:59:17;52.33;;;22.88;;
25279;SDS011;13225;47.804;12.116;2023-03-03T03:01:43;54.40;;;22.02;;
25279;SDS011;13225;47.804;12.116;2023-03-03T03:04:11;56.85;;;23.05;;
25279;SDS011;13225;47.804;12.116;2023-03-03T03:06:38;56.60;;;23.15;;
25279;SDS011;13225;47.804;12.116;2023-03-03T03:09:05;57.65;;;22.67;;
25279;SDS011;13225;47.804;12.116;2023-03-03T03:11:33;54.20;;;22.27;;
25279;SDS011;13225;47.804;12.116;2023-03-03T03:14:03;56.83;;;23.40;;
25279;SDS011;13225;47.804;12.116;2023-03-03T03:16:29;55.63;;;23.00;;
25279;SDS011;13225;47.804;12.116;2023-03-03T03:18:58;56.88;;;22.90;;
25279;SDS011;13225;47.804;12.116;2023-03-03T03:21:25;54.70;;;23.58;;
25279;SDS011;13225;47.804;12.116;2023-03-03T03:23:51;59.05;;;23.70;;
25279;SDS011;13225;47.804;12.116;2023-03-03T03:26:17;58.08;;;23.65;;
25279;SDS011;13225;47.804;12.116;2023-03-03T03:28:44;54.90;;;23.50;;
25279;SDS011;13225;47.804;12.116;2023-03-03T03:31:10;54.38;;;22.67;;
25279;SDS011;13225;47.804;12.116;2023-03-03T03:33:36;55.30;;;23.67;;
25279;SDS011;13225;47.804;12.116;2023-03-03T03:36:02;58.80;;;22.92;;
25279;SDS011;13225;47.804;12.116;2023-03-03T03:38:30;55.35;;;22.83;;
25279;SDS011;13225;47.804;12.116;2023-03-03T03:40:57;54.22;;;23.90;;
25279;SDS011;13225;47.804;12.116;2023-03-03T03:43:23;51.05;;;22.48;;
25279;SDS011;13225;47.804;12.116;2023-03-03T03:45:49;53.50;;;21.95;;
25279;SDS011;13225;47.804;12.116;2023-03-03T03:48:15;55.38;;;23.08;;
25279;SDS011;13225;47.804;12.116;2023-03-03T03:50:41;54.15;;;22.73;;
25279;SDS011;13225;47.804;12.116;2023-03-03T03:53:07;54.63;;;22.65;;
25279;SDS011;13225;47.804;12.116;2023-03-03T03:55:33;52.45;;;21.85;;
25279;SDS011;13225;47.804;12.116;2023-03-03T03:57:58;50.20;;;21.60;;
25279;SDS011;13225;47.804;12.116;2023-03-03T04:00:24;53.20;;;22.35;;
25279;SDS011;13225;47.804;12.116;2023-03-03T04:02:50;58.13;;;24.48;;
25279;SDS011;13225;47.804;12.116;2023-03-03T04:05:16;51.35;;;22.40;;
25279;SDS011;13225;47.804;12.116;2023-03-03T04:07:41;56.60;;;23.23;;
25279;SDS011;13225;47.804;12.116;2023-03-03T04:10:08;54.55;;;22.85;;
25279;SDS011;13225;47.804;12.116;2023-03-03T04:12:35;56.55;;;24.27;;
25279;SDS011;13225;47.804;12.116;2023-03-03T04:15:08;54.60;;;23.10;;
25279;SDS011;13225;47.804;12.116;2023-03-03T04:17:35;57.25;;;23.90;;
25279;SDS011;13225;47.804;12.116;2023-03-03T04:20:01;52.40;;;22.70;;
25279;SDS011;13225;47.804;12.116;2023-03-03T04:22:28;56.70;;;23.27;;
25279;SDS011;13225;47.804;12.116;2023-03-03T04:24:57;55.80;;;23.08;;
25279;SDS011;13225;47.804;12.116;2023-03-03T04:27:24;58.65;;;22.77;;
25279;SDS011;13225;47.804;12.116;2023-03-03T04:29:49;57.63;;;23.33;;
25279;SDS011;13225;47.804;12.116;2023-03-03T04:32:15;52.35;;;22.45;;
25279;SDS011;13225;47.804;12.116;2023-03-03T04:34:42;55.70;;;22.73;;
25279;SDS011;13225;47.804;12.116;2023-03-03T04:37:08;56.47;;;23.42;;
25279;SDS011;13225;47.804;12.116;2023-03-03T04:39:34;51.60;;;22.98;;
25279;SDS011;13225;47.804;12.116;2023-03-03T04:41:59;52.20;;;22.63;;
25279;SDS011;13225;47.804;12.116;2023-03-03T04:44:25;49.95;;;22.25;;
25279;SDS011;13225;47.804;12.116;2023-03-03T04:46:50;52.78;;;23.45;;
25279;SDS011;13225;47.804;12.116;2023-03-03T04:49:16;53.92;;;22.75;;
25279;SDS011;13225;47.804;12.116;2023-03-03T04:51:41;57.10;;;23.67;;
25279;SDS011;13225;47.804;12.116;2023-03-03T04:54:07;54.03;;;23.20;;
25279;SDS011;13225;47.804;12.116;2023-03-03T04:56:33;58.50;;;24.42;;
25279;SDS011;13225;47.804;12.116;2023-03-03T04:58:58;57.42;;;23.55;;
25279;SDS011;13225;47.804;12.116;2023-03-03T05:01:24;49.67;;;22.23;;
25279;SDS011;13225;47.804;12.116;2023-03-03T05:03:50;54.67;;;22.60;;
25279;SDS011;13225;47.804;12.116;2023-03-03T05:06:15;53.30;;;22.63;;
25279;SDS011;13225;47.804;12.116;2023-03-03T05:08:42;55.80;;;21.85;;
25279;SDS011;13225;47.804;12.116;2023-03-03T05:11:08;55.22;;;24.02;;
25279;SDS011;13225;47.804;12.116;2023-03-03T05:13:34;59.03;;;22.70;;
25279;SDS011;13225;47.804;12.116;2023-03-03T05:16:00;52.53;;;22.30;;
25279;SDS011;13225;47.804;12.116;2023-03-03T05:18:25;63.30;;;28.00;;
25279;SDS011;13225;47.804;12.116;2023-03-03T05:20:52;68.15;;;28.48;;
25279;SDS011;13225;47.804;12.116;2023-03-03T05:23:18;62.65;;;29.98;;
25279;SDS011;13225;47.804;12.116;2023-03-03T05:25:45;61.92;;;26.02;;
25279;SDS011;13225;47.804;12.116;2023-03-03T05:28:12;57.78;;;24.05;;
25279;SDS011;13225;47.804;12.116;2023-03-03T05:30:37;54.25;;;22.50;;
25279;SDS011;13225;47.804;12.116;2023-03-03T05:33:03;55.33;;;25.15;;
25279;SDS011;13225;47.804;12.116;2023-03-03T05:35:30;56.13;;;23.85;;
25279;SDS011;13225;47.804;12.116;2023-03-03T05:37:56;55.92;;;23.95;;
25279;SDS011;13225;47.804;12.116;2023-03-03T05:40:22;53.72;;;23.38;;
25279;SDS011;13225;47.804;12.116;2023-03-03T05:42:49;55.08;;;23.13;;
25279;SDS011;13225;47.804;12.116;2023-03-03T05:45:15;57.42;;;23.40;;
25279;SDS011;13225;47.804;12.116;2023-03-03T05:47:44;53.53;;;23.83;;
25279;SDS011;13225;47.804;12.116;2023-03-03T05:50:10;89.15;;;37.60;;
25279;SDS011;13225;47.804;12.116;2023-03-03T05:52:36;71.25;;;32.42;;
25279;SDS011;13225;47.804;12.116;2023-03-03T05:55:02;73.00;;;33.30;;
25279;SDS011;13225;47.804;12.116;2023-03-03T05:57:28;61.35;;;25.00;;
25279;SDS011;13225;47.804;12.116;2023-03-03T05:59:54;57.55;;;23.58;;
25279;SDS011;13225;47.804;12.116;2023-03-03T06:02:21;54.15;;;22.55;;
25279;SDS011;13225;47.804;12.116;2023-03-03T06:04:47;56.03;;;24.00;;
25279;SDS011;13225;47.804;12.116;2023-03-03T06:07:12;58.53;;;24.92;;
25279;SDS011;13225;47.804;12.116;2023-03-03T06:09:38;55.55;;;23.65;;
25279;SDS011;13225;47.804;12.116;2023-03-03T06:12:04;57.03;;;23.13;;
25279;SDS011;13225;47.804;12.116;2023-03-03T06:14:30;56.80;;;24.35;;
25279;SDS011;13225;47.804;12.116;2023-03-03T06:16:55;56.47;;;23.23;;
25279;SDS011;13225;47.804;12.116;2023-03-03T06:19:22;57.28;;;24.50;;
25279;SDS011;13225;47.804;12.116;2023-03-03T06:21:48;61.80;;;26.50;;
25279;SDS011;13225;47.804;12.116;2023-03-03T06:24:13;57.90;;;25.30;;
25279;SDS011;13225;47.804;12.116;2023-03-03T06:26:39;55.42;;;23.38;;
25279;SDS011;13225;47.804;12.116;2023-03-03T06:29:05;56.10;;;23.40;;
25279;SDS011;13225;47.804;12.116;2023-03-03T06:31:31;53.47;;;23.00;;
25279;SDS011;13225;47.804;12.116;2023-03-03T06:33:56;52.20;;;22.63;;
25279;SDS011;13225;47.804;12.116;2023-03-03T06:36:22;57.65;;;23.63;;
25279;SDS011;13225;47.804;12.116;2023-03-03T06:38:49;54.65;;;23.13;;
25279;SDS011;13225;47.804;12.116;2023-03-03T06:41:15;53.95;;;22.30;;
25279;SDS011;13225;47.804;12.116;2023-03-03T06:43:41;54.50;;;23.83;;
25279;SDS011;13225;47.804;12.116;2023-03-03T06:46:06;57.13;;;23.00;;
25279;SDS011;13225;47.804;12.116;2023-03-03T06:48:32;47.17;;;21.90;;
25279;SDS011;13225;47.804;12.116;2023-03-03T06:50:58;56.65;;;23.08;;
25279;SDS011;13225;47.804;12.116;2023-03-03T06:53:26;51.40;;;22.25;;
25279;SDS011;13225;47.804;12.116;2023-03-03T06:55:52;54.97;;;22.45;;
25279;SDS011;13225;47.804;12.116;2023-03-03T06:58:21;54.88;;;23.75;;
25279;SDS011;13225;47.804;12.116;2023-03-03T07:00:57;53.55;;;22.15;;
25279;SDS011;13225;47.804;12.116;2023-03-03T07:03:33;59.72;;;24.75;;
25279;SDS011;13225;47.804;12.116;2023-03-03T07:05:59;56.78;;;24.70;;
25279;SDS011;13225;47.804;12.116;2023-03-03T07:08:26;57.85;;;24.30;;
25279;SDS011;13225;47.804;12.116;2023-03-03T07:10:54;52.17;;;22.70;;
25279;SDS011;13225;47.804;12.116;2023-03-03T07:13:21;55.08;;;23.67;;
25279;SDS011;13225;47.804;12.116;2023-03-03T07:15:52;59.33;;;25.45;;
25279;SDS011;13225;47.804;12.116;2023-03-03T07:18:43;51.03;;;23.90;;
25279;SDS011;13225;47.804;12.116;2023-03-03T07:21:18;52.67;;;22.70;;
25279;SDS011;13225;47.804;12.116;2023-03-03T07:23:44;56.47;;;24.40;;
25279;SDS011;13225;47.804;12.116;2023-03-03T07:26:18;65.45;;;26.63;;
25279;SDS011;13225;47.804;12.116;2023-03-03T07:28:55;59.50;;;25.85;;
25279;SDS011;13225;47.804;12.116;2023-03-03T07:31:25;53.70;;;22.95;;
25279;SDS011;13225;47.804;12.116;2023-03-03T07:33:55;50.67;;;23.40;;
25279;SDS011;13225;47.804;12.116;2023-03-03T07:36:26;62.78;;;25.05;;
25279;SDS011;13225;47.804;12.116;2023-03-03T07:38:53;55.55;;;23.52;;
25279;SDS011;13225;47.804;12.116;2023-03-03T07:41:21;52.67;;;23.90;;
25279;SDS011;13225;47.804;12.116;2023-03-03T07:43:53;57.58;;;25.20;;
25279;SDS011;13225;47.804;12.116;2023-03-03T07:49:28;66.32;;;26.60;;
25279;SDS011;13225;47.804;12.116;2023-03-03T07:51:59;57.10;;;25.15;;
25279;SDS011;13225;47.804;12.116;2023-03-03T07:54:35;66.25;;;26.50;;
25279;SDS011;13225;47.804;12.116;2023-03-03T08:00:00;56.33;;;25.42;;
25279;SDS011;13225;47.804;12.116;2023-03-03T08:02:43;58.05;;;25.52;;
25279;SDS011;13225;47.804;12.116;2023-03-03T08:07:51;61.90;;;27.52;;
25279;SDS011;13225;47.804;12.116;2023-03-03T08:10:27;62.53;;;26.10;;
25279;SDS011;13225;47.804;12.116;2023-03-03T08:12:53;61.50;;;25.83;;
25279;SDS011;13225;47.804;12.116;2023-03-03T08:15:21;62.20;;;26.27;;
25279;SDS011;13225;47.804;12.116;2023-03-03T08:17:54;59.47;;;27.17;;
25279;SDS011;13225;47.804;12.116;2023-03-03T08:23:09;62.65;;;27.02;;
25279;SDS011;13225;47.804;12.116;2023-03-03T08:25:35;62.70;;;27.02;;
25279;SDS011;13225;47.804;12.116;2023-03-03T08:28:01;60.05;;;26.52;;
25279;SDS011;13225;47.804;12.116;2023-03-03T08:30:26;58.58;;;26.20;;
25279;SDS011;13225;47.804;12.116;2023-03-03T08:32:52;62.45;;;27.20;;
25279;SDS011;13225;47.804;12.116;2023-03-03T08:35:17;57.33;;;26.30;;
25279;SDS011;13225;47.804;12.116;2023-03-03T08:37:43;60.47;;;26.75;;
25279;SDS011;13225;47.804;12.116;2023-03-03T08:40:09;62.22;;;26.52;;
25279;SDS011;13225;47.804;12.116;2023-03-03T08:42:35;62.58;;;25.83;;
25279;SDS011;13225;47.804;12.116;2023-03-03T08:45:00;56.17;;;26.08;;
25279;SDS011;13225;47.804;12.116;2023-03-03T08:47:26;62.22;;;26.73;;
25279;SDS011;13225;47.804;12.116;2023-03-03T08:49:51;56.00;;;26.55;;
25279;SDS011;13225;47.804;12.116;2023-03-03T08:52:18;52.60;;;23.55;;
25279;SDS011;13225;47.804;12.116;2023-03-03T08:54:44;57.60;;;25.48;;
25279;SDS011;13225;47.804;12.116;2023-03-03T08:57:09;55.50;;;24.33;;
25279;SDS011;13225;47.804;12.116;2023-03-03T08:59:35;55.97;;;24.73;;
25279;SDS011;13225;47.804;12.116;2023-03-03T09:02:04;49.65;;;22.92;;
25279;SDS011;13225;47.804;12.116;2023-03-03T09:04:30;59.95;;;25.52;;
25279;SDS011;13225;47.804;12.116;2023-03-03T09:06:56;56.92;;;24.52;;
25279;SDS011;13225;47.804;12.116;2023-03-03T09:09:23;56.65;;;25.35;;
25279;SDS011;13225;47.804;12.116;2023-03-03T09:11:48;56.35;;;24.60;;
25279;SDS011;13225;47.804;12.116;2023-03-03T09:14:15;53.22;;;23.65;;
25279;SDS011;13225;47.804;12.116;2023-03-03T09:16:52;56.45;;;24.67;;
25279;SDS011;13225;47.804;12.116;2023-03-03T09:19:24;52.97;;;23.02;;
25279;SDS011;13225;47.804;12.116;2023-03-03T09:21:55;52.67;;;22.88;;
25279;SDS011;13225;47.804;12.116;2023-03-03T09:24:40;54.95;;;23.63;;
25279;SDS011;13225;47.804;12.116;2023-03-03T09:27:11;57.95;;;23.77;;
25279;SDS011;13225;47.804;12.116;2023-03-03T09:29:44;58.78;;;23.95;;
25279;SDS011;13225;47.804;12.116;2023-03-03T09:32:29;53.03;;;23.65;;
25279;SDS011;13225;47.804;12.116;2023-03-03T09:38:14;56.25;;;23.40;;
25279;SDS011;13225;47.804;12.116;2023-03-03T09:46:45;56.30;;;25.80;;
25279;SDS011;13225;47.804;12.116;2023-03-03T09:49:30;59.35;;;25.95;;
25279;SDS011;13225;47.804;12.116;2023-03-03T09:52:10;59.38;;;25.92;;
25279;SDS011;13225;47.804;12.116;2023-03-03T09:55:16;58.55;;;25.30;;
25279;SDS011;13225;47.804;12.116;2023-03-03T09:57:48;58.20;;;24.85;;
25279;SDS011;13225;47.804;12.116;2023-03-03T10:03:02;56.30;;;23.52;;
25279;SDS011;13225;47.804;12.116;2023-03-03T10:05:50;56.53;;;25.08;;
25279;SDS011;13225;47.804;12.116;2023-03-03T10:08:45;65.32;;;27.20;;
25279;SDS011;13225;47.804;12.116;2023-03-03T10:11:37;68.93;;;26.67;;
25279;SDS011;13225;47.804;12.116;2023-03-03T10:14:16;61.83;;;24.10;;
25279;SDS011;13225;47.804;12.116;2023-03-03T10:19:36;65.00;;;27.02;;
25279;SDS011;13225;47.804;12.116;2023-03-03T10:22:12;59.20;;;25.50;;
25279;SDS011;13225;47.804;12.116;2023-03-03T10:24:57;57.83;;;23.40;;
25279;SDS011;13225;47.804;12.116;2023-03-03T10:27:57;61.80;;;25.02;;
25279;SDS011;13225;47.804;12.116;2023-03-03T10:30:45;58.53;;;25.10;;
25279;SDS011;13225;47.804;12.116;2023-03-03T10:38:40;59.70;;;25.17;;
25279;SDS011;13225;47.804;12.116;2023-03-03T10:55:16;48.97;;;20.85;;
25279;SDS011;13225;47.804;12.116;2023-03-03T10:57:54;59.92;;;24.80;;
25279;SDS011;13225;47.804;12.116;2023-03-03T11:00:32;57.13;;;24.35;;
25279;SDS011;13225;47.804;12.116;2023-03-03T11:09:25;58.45;;;25.15;;
25279;SDS011;13225;47.804;12.116;2023-03-03T11:11:35;58.78;;;25.08;;
25279;SDS011;13225;47.804;12.116;2023-03-03T11:20:00;61.92;;;24.92;;
25279;SDS011;13225;47.804;12.116;2023-03-03T11:33:03;53.15;;;23.27;;
25279;SDS011;13225;47.804;12.116;2023-03-03T11:44:21;61.65;;;25.83;;
25279;SDS011;13225;47.804;12.116;2023-03-03T11:52:39;57.03;;;24.42;;
25279;SDS011;13225;47.804;12.116;2023-03-03T12:00:48;58.15;;;25.05;;
25279;SDS011;13225;47.804;12.116;2023-03-03T12:20:08;59.42;;;25.30;;
25279;SDS011;13225;47.804;12.116;2023-03-03T12:28:15;56.10;;;24.77;;
25279;SDS011;13225;47.804;12.116;2023-03-03T12:33:51;56.42;;;24.48;;
25279;SDS011;13225;47.804;12.116;2023-03-03T12:39:03;54.45;;;25.35;;
25279;SDS011;13225;47.804;12.116;2023-03-03T12:41:43;61.60;;;25.85;;
25279;SDS011;13225;47.804;12.116;2023-03-03T12:44:29;57.25;;;24.02;;
25279;SDS011;13225;47.804;12.116;2023-03-03T12:47:15;57.75;;;25.30;;
25279;SDS011;13225;47.804;12.116;2023-03-03T12:52:35;55.83;;;24.00;;
25279;SDS011;13225;47.804;12.116;2023-03-03T12:55:16;57.50;;;25.48;;
25279;SDS011;13225;47.804;12.116;2023-03-03T13:00:20;54.15;;;24.80;;
25279;SDS011;13225;47.804;12.116;2023-03-03T13:03:13;53.03;;;24.52;;
25279;SDS011;13225;47.804;12.116;2023-03-03T13:08:40;55.45;;;24.85;;
25279;SDS011;13225;47.804;12.116;2023-03-03T13:14:37;52.92;;;25.17;;
25279;SDS011;13225;47.804;12.116;2023-03-03T13:19:53;49.85;;;22.60;;
25279;SDS011;13225;47.804;12.116;2023-03-03T13:27:49;54.50;;;23.42;;
25279;SDS011;13225;47.804;12.116;2023-03-03T13:30:24;57.15;;;25.92;;
25279;SDS011;13225;47.804;12.116;2023-03-03T13:33:11;53.83;;;25.42;;
25279;SDS011;13225;47.804;12.116;2023-03-03T13:36:00;64.82;;;26.55;;
25279;SDS011;13225;47.804;12.116;2023-03-03T13:38:45;58.15;;;27.23;;
25279;SDS011;13225;47.804;12.116;2023-03-03T13:41:39;60.75;;;26.65;;
25279;SDS011;13225;47.804;12.116;2023-03-03T13:44:12;56.10;;;25.50;;
25279;SDS011;13225;47.804;12.116;2023-03-03T13:50:00;61.05;;;25.80;;
25279;SDS011;13225;47.804;12.116;2023-03-03T13:52:58;62.17;;;27.23;;
25279;SDS011;13225;47.804;12.116;2023-03-03T13:55:48;63.60;;;28.50;;
25279;SDS011;13225;47.804;12.116;2023-03-03T13:58:32;62.60;;;26.15;;
25279;SDS011;13225;47.804;12.116;2023-03-03T14:01:23;66.75;;;27.40;;
25279;SDS011;13225;47.804;12.116;2023-03-03T14:07:40;69.28;;;27.85;;
25279;SDS011;13225;47.804;12.116;2023-03-03T14:15:26;58.50;;;26.73;;
25279;SDS011;13225;47.804;12.116;2023-03-03T14:20:28;64.88;;;27.63;;
25279;SDS011;13225;47.804;12.116;2023-03-03T14:23:00;59.28;;;26.00;;
25279;SDS011;13225;47.804;12.116;2023-03-03T14:25:48;63.53;;;25.65;;
25279;SDS011;13225;47.804;12.116;2023-03-03T14:28:29;60.75;;;26.42;;
25279;SDS011;13225;47.804;12.116;2023-03-03T14:36:47;63.22;;;27.85;;
25279;SDS011;13225;47.804;12.116;2023-03-03T14:42:02;58.45;;;25.83;;
25279;SDS011;13225;47.804;12.116;2023-03-03T14:44:37;57.88;;;26.08;;
25279;SDS011;13225;47.804;12.116;2023-03-03T14:47:24;60.92;;;25.55;;
25279;SDS011;13225;47.804;12.116;2023-03-03T14:49:51;62.13;;;25.63;;
25279;SDS011;13225;47.804;12.116;2023-03-03T14:52:25;57.83;;;25.67;;
25279;SDS011;13225;47.804;12.116;2023-03-03T14:54:54;62.72;;;26.30;;
25279;SDS011;13225;47.804;12.116;2023-03-03T15:07:48;57.95;;;25.33;;
25279;SDS011;13225;47.804;12.116;2023-03-03T15:10:26;58.25;;;26.23;;
25279;SDS011;13225;47.804;12.116;2023-03-03T15:12:56;60.88;;;25.77;;
25279;SDS011;13225;47.804;12.116;2023-03-03T15:15:25;61.63;;;27.15;;
25279;SDS011;13225;47.804;12.116;2023-03-03T15:17:53;55.55;;;25.98;;
25279;SDS011;13225;47.804;12.116;2023-03-03T15:23:28;56.17;;;25.90;;
25279;SDS011;13225;47.804;12.116;2023-03-03T15:34:17;56.42;;;25.75;;
25279;SDS011;13225;47.804;12.116;2023-03-03T15:36:55;56.63;;;26.25;;
25279;SDS011;13225;47.804;12.116;2023-03-03T15:42:47;59.08;;;24.75;;
25279;SDS011;13225;47.804;12.116;2023-03-03T15:45:17;54.10;;;24.88;;
25279;SDS011;13225;47.804;12.116;2023-03-03T16:00:14;59.38;;;26.40;;
25279;SDS011;13225;47.804;12.116;2023-03-03T16:29:03;67.03;;;26.60;;
25279;SDS011;13225;47.804;12.116;2023-03-03T16:36:57;62.20;;;26.73;;
25279;SDS011;13225;47.804;12.116;2023-03-03T16:41:59;63.90;;;25.85;;
25279;SDS011;13225;47.804;12.116;2023-03-03T16:44:36;66.47;;;28.50;;
25279;SDS011;13225;47.804;12.116;2023-03-03T16:50:08;65.00;;;27.45;;
25279;SDS011;13225;47.804;12.116;2023-03-03T16:52:46;63.33;;;27.13;;
25279;SDS011;13225;47.804;12.116;2023-03-03T16:55:24;58.60;;;25.55;;
25279;SDS011;13225;47.804;12.116;2023-03-03T16:58:04;69.53;;;27.20;;
25279;SDS011;13225;47.804;12.116;2023-03-03T17:06:16;64.93;;;28.08;;
25279;SDS011;13225;47.804;12.116;2023-03-03T17:19:20;73.45;;;29.75;;
25279;SDS011;13225;47.804;12.116;2023-03-03T17:24:43;72.85;;;29.58;;
25279;SDS011;13225;47.804;12.116;2023-03-03T17:27:24;72.00;;;30.58;;
25279;SDS011;13225;47.804;12.116;2023-03-03T17:30:02;69.38;;;30.15;;
25279;SDS011;13225;47.804;12.116;2023-03-03T17:32:57;75.68;;;30.73;;
25279;SDS011;13225;47.804;12.116;2023-03-03T17:44:00;75.40;;;31.98;;
25279;SDS011;13225;47.804;12.116;2023-03-03T17:46:32;72.82;;;31.55;;
25279;SDS011;13225;47.804;12.116;2023-03-03T17:49:13;79.90;;;33.83;;
25279;SDS011;13225;47.804;12.116;2023-03-03T18:05:31;95.03;;;36.05;;
25279;SDS011;13225;47.804;12.116;2023-03-03T18:10:58;84.38;;;35.97;;
25279;SDS011;13225;47.804;12.116;2023-03-03T18:16:36;80.60;;;32.90;;
25279;SDS011;13225;47.804;12.116;2023-03-03T18:37:54;80.90;;;33.60;;
25279;SDS011;13225;47.804;12.116;2023-03-03T18:40:26;79.18;;;33.13;;
25279;SDS011;13225;47.804;12.116;2023-03-03T18:42:55;92.03;;;35.75;;
25279;SDS011;13225;47.804;12.116;2023-03-03T18:48:08;88.22;;;34.78;;
25279;SDS011;13225;47.804;12.116;2023-03-03T18:50:36;83.97;;;34.75;;
25279;SDS011;13225;47.804;12.116;2023-03-03T18:53:25;81.22;;;32.28;;
25279;SDS011;13225;47.804;12.116;2023-03-03T18:55:59;83.18;;;32.70;;
25279;SDS011;13225;47.804;12.116;2023-03-03T19:03:33;88.35;;;35.42;;
25279;SDS011;13225;47.804;12.116;2023-03-03T19:09:17;94.90;;;34.55;;
25279;SDS011;13225;47.804;12.116;2023-03-03T19:11:51;90.93;;;34.33;;
25279;SDS011;13225;47.804;12.116;2023-03-03T19:16:50;91.55;;;35.72;;
25279;SDS011;13225;47.804;12.116;2023-03-03T19:19:17;92.13;;;36.33;;
25279;SDS011;13225;47.804;12.116;2023-03-03T19:21:46;95.30;;;35.65;;
25279;SDS011;13225;47.804;12.116;2023-03-03T19:32:10;94.90;;;37.55;;
25279;SDS011;13225;47.804;12.116;2023-03-03T19:40:18;89.53;;;36.13;;
25279;SDS011;13225;47.804;12.116;2023-03-03T19:48:33;93.07;;;37.17;;
25279;SDS011;13225;47.804;12.116;2023-03-03T19:56:36;93.10;;;36.30;;
25279;SDS011;13225;47.804;12.116;2023-03-03T19:59:24;102.53;;;37.47;;
25279;SDS011;13225;47.804;12.116;2023-03-03T20:07:59;102.47;;;37.92;;
25279;SDS011;13225;47.804;12.116;2023-03-03T20:10:45;109.03;;;39.25;;
25279;SDS011;13225;47.804;12.116;2023-03-03T20:27:02;90.35;;;31.90;;
25279;SDS011;13225;47.804;12.116;2023-03-03T20:30:16;83.35;;;31.90;;
25279;SDS011;13225;47.804;12.116;2023-03-03T20:33:08;88.20;;;32.95;;
25279;SDS011;13225;47.804;12.116;2023-03-03T20:35:48;91.93;;;33.67;;
25279;SDS011;13225;47.804;12.116;2023-03-03T20:38:50;84.43;;;32.00;;
25279;SDS011;13225;47.804;12.116;2023-03-03T20:41:26;90.03;;;34.15;;
25279;SDS011;13225;47.804;12.116;2023-03-03T20:44:23;87.65;;;34.92;;